Time;durP1;ratioP1;P1;durP2;ratioP2;P2;SDS_P1;SDS_P2;PMS_P1;PMS_P2;Temp;Humidity;BMP_temperature;BMP_pressure;BME280_temperature;BME280_humidity;BME280_pressure;Samples;Min_cycle;Max_cycle;Signal;HPM_P1;HPM_P2
2023/06/27 00:01:11;;;;;;;4.43;1.80;;;;;;;21.03;58.02;97668.41;5013541;28;20401;-68
2023/06/27 00:03:37;;;;;;;5.07;1.75;;;;;;;21.02;58.32;97670.28;5013470;28;20423;-67
2023/06/27 00:06:04;;;;;;;6.72;1.70;;;;;;;21.05;55.38;97675.03;5013580;28;20432;-67
2023/06/27 00:08:31;;;;;;;7.32;1.83;;;;;;;21.06;55.91;97665.84;5013656;28;20487;-67
2023/06/27 00:10:58;;;;;;;5.67;1.87;;;;;;;21.13;52.92;97670.78;5013812;28;20955;-69
2023/06/27 00:13:24;;;;;;;6.35;1.92;;;;;;;21.08;53.64;97673.63;5012011;28;20479;-68
2023/06/27 00:15:52;;;;;;;10.40;2.40;;;;;;;21.10;52.35;97668.75;5013380;28;20767;-69
2023/06/27 00:18:21;;;;;;;6.05;1.83;;;;;;;21.07;53.14;97669.34;5013396;28;20455;-69
2023/06/27 00:20:48;;;;;;;3.50;1.70;;;;;;;21.02;55.19;97670.28;5013376;28;20466;-68
2023/06/27 00:23:18;;;;;;;4.03;1.80;;;;;;;21.02;55.22;97670.28;5013002;28;20502;-68
2023/06/27 00:25:45;;;;;;;3.07;1.80;;;;;;;20.99;56.60;97675.50;5013267;28;20405;-69
2023/06/27 00:28:11;;;;;;;2.55;1.63;;;;;;;20.93;57.60;97674.84;5013325;28;20463;-67
2023/06/27 00:30:37;;;;;;;3.00;1.50;;;;;;;20.88;58.57;97672.31;5013281;28;20423;-68
2023/06/27 00:33:05;;;;;;;4.22;1.73;;;;;;;20.86;58.92;97677.19;5012824;28;20404;-68
2023/06/27 00:35:32;;;;;;;3.08;1.90;;;;;;;20.83;59.68;97683.19;5013205;28;20411;-68
2023/06/27 00:37:59;;;;;;;3.95;1.90;;;;;;;20.84;60.17;97680.19;5013140;28;20917;-69
2023/06/27 00:40:25;;;;;;;6.03;1.75;;;;;;;20.84;58.73;97679.38;5013102;28;20483;-69
2023/06/27 00:42:51;;;;;;;3.92;1.80;;;;;;;20.84;57.23;97674.81;5012863;28;20420;-68
2023/06/27 00:45:18;;;;;;;6.35;2.20;;;;;;;20.83;56.74;97678.59;5013053;28;20926;-68
2023/06/27 00:47:45;;;;;;;3.38;1.48;;;;;;;20.82;58.22;97681.63;5012970;28;20494;-69
2023/06/27 00:50:12;;;;;;;9.18;2.08;;;;;;;20.84;57.69;97674.81;5012856;28;20408;-68
2023/06/27 00:52:39;;;;;;;3.25;1.67;;;;;;;20.81;57.54;97683.50;5012562;28;20413;-67
2023/06/27 00:55:07;;;;;;;4.15;2.00;;;;;;;20.81;57.84;97688.09;5012658;28;20401;-69
2023/06/27 00:57:33;;;;;;;3.53;1.77;;;;;;;20.78;59.33;97688.72;5012921;28;20417;-68
2023/06/27 01:00:01;;;;;;;5.32;1.70;;;;;;;20.79;59.10;97690.28;5012076;28;22330;-69
2023/06/27 01:02:27;;;;;;;5.88;1.88;;;;;;;20.78;59.56;97688.72;5012440;28;20818;-68
2023/06/27 01:04:54;;;;;;;3.47;1.80;;;;;;;20.74;60.75;97690.44;5012375;28;20462;-69
2023/06/27 01:07:28;;;;;;;5.20;1.77;;;;;;;20.74;60.75;97691.22;5012405;28;20409;-69
2023/06/27 01:10:00;;;;;;;5.13;1.77;;;;;;;20.74;59.81;97695.81;5012402;28;20408;-69
2023/06/27 01:12:32;;;;;;;2.50;1.40;;;;;;;20.72;61.05;97698.03;5012296;28;20899;-68
2023/06/27 01:14:59;;;;;;;3.83;1.77;;;;;;;20.74;60.21;97693.13;5012219;28;20423;-69
2023/06/27 01:17:28;;;;;;;4.20;1.85;;;;;;;20.72;59.94;97695.31;5012188;28;20409;-68
2023/06/27 01:19:55;;;;;;;3.63;1.70;;;;;;;20.70;60.54;97698.31;5012438;28;20440;-68
2023/06/27 01:22:29;;;;;;;2.22;1.55;;;;;;;20.67;61.81;97696.25;5011912;28;20954;-69
2023/06/27 01:24:57;;;;;;;3.90;1.83;;;;;;;20.67;62.15;97698.16;5011741;28;20397;-68
2023/06/27 01:27:23;;;;;;;4.17;1.80;;;;;;;20.67;61.22;97695.47;5012079;28;20483;-68
2023/06/27 01:29:50;;;;;;;4.40;1.40;;;;;;;20.65;62.09;97692.28;5011953;28;20401;-67
2023/06/27 01:32:24;;;;;;;3.53;1.77;;;;;;;20.63;62.88;97692.59;5011683;28;20409;-69
2023/06/27 01:34:57;;;;;;;3.35;1.63;;;;;;;20.63;63.72;97702.56;5012266;28;20999;-69
2023/06/27 01:37:29;;;;;;;3.78;1.70;;;;;;;20.64;63.38;97702.25;5011911;28;20467;-69
2023/06/27 01:40:02;;;;;;;2.78;1.60;;;;;;;20.61;64.07;97694.78;5011866;28;20409;-69
2023/06/27 01:42:34;;;;;;;3.28;1.67;;;;;;;20.61;64.21;97702.06;5011502;28;20902;-68
2023/06/27 01:45:04;;;;;;;5.72;1.75;;;;;;;20.61;64.01;97699.38;5011931;28;20961;-68
2023/06/27 01:47:32;;;;;;;4.93;1.70;;;;;;;20.58;64.47;97708.06;5011618;28;20405;-68
2023/06/27 01:49:58;;;;;;;3.90;1.70;;;;;;;20.60;62.92;97700.50;5011807;28;20488;-69
2023/06/27 01:52:25;;;;;;;3.85;1.52;;;;;;;20.55;63.81;97697.91;5011537;28;20491;-69
2023/06/27 01:54:51;;;;;;;3.30;1.77;;;;;;;20.57;62.61;97693.81;5011574;28;20448;-69
2023/06/27 01:57:18;;;;;;;6.10;1.80;;;;;;;20.54;62.32;97690.94;5011553;28;20762;-69
2023/06/27 01:59:45;;;;;;;4.93;2.13;;;;;;;20.52;60.93;97680.50;5011724;28;20412;-69
2023/06/27 02:02:11;;;;;;;5.23;2.00;;;;;;;20.45;62.96;97699.75;5011104;28;20396;-69
2023/06/27 02:04:37;;;;;;;3.80;1.80;;;;;;;20.41;63.05;97698.78;5011470;28;20507;-69
2023/06/27 02:07:04;;;;;;;2.83;1.67;;;;;;;20.34;63.38;97684.19;5010394;28;20413;-69
2023/06/27 02:09:30;;;;;;;3.95;1.80;;;;;;;20.29;62.58;97695.84;5011330;28;20405;-67
2023/06/27 02:11:56;;;;;;;4.63;1.77;;;;;;;20.24;63.20;97684.41;5011068;28;20908;-67
2023/06/27 02:14:24;;;;;;;4.50;1.70;;;;;;;20.20;64.04;97680.75;5011360;28;20489;-69
2023/06/27 02:16:50;;;;;;;5.72;1.92;;;;;;;20.21;63.79;97691.19;5011324;28;20404;-68
2023/06/27 02:19:16;;;;;;;3.80;1.75;;;;;;;20.18;64.92;97694.47;5011245;28;20416;-68
2023/06/27 02:21:43;;;;;;;5.03;1.83;;;;;;;20.17;65.02;97694.78;5010965;28;20424;-69
2023/06/27 02:24:09;;;;;;;3.25;1.67;;;;;;;20.17;65.35;97690.19;5011157;28;20425;-69
2023/06/27 02:26:36;;;;;;;5.13;2.05;;;;;;;20.16;63.74;97691.28;5011474;28;20802;-68
2023/06/27 02:29:02;;;;;;;2.67;1.48;;;;;;;20.11;65.73;97680.69;5011137;28;20415;-69
2023/06/27 02:31:29;;;;;;;2.07;1.40;;;;;;;20.11;66.15;97672.63;5010805;28;20488;-68
2023/06/27 02:33:55;;;;;;;2.70;1.58;;;;;;;20.12;66.64;97679.59;5009660;28;20405;-69
2023/06/27 02:36:22;;;;;;;4.68;1.88;;;;;;;20.11;65.41;97683.38;5010332;28;20455;-69
2023/06/27 02:38:49;;;;;;;2.35;1.60;;;;;;;20.11;65.47;97669.94;5011081;28;20409;-69
2023/06/27 02:41:16;;;;;;;3.13;1.48;;;;;;;20.08;66.48;97671.31;5010666;28;20407;-68
2023/06/27 02:43:42;;;;;;;2.80;1.60;;;;;;;20.08;66.60;97676.69;5010962;28;20778;-68
2023/06/27 02:46:08;;;;;;;2.25;1.40;;;;;;;20.07;67.22;97669.72;5010944;28;20424;-68
2023/06/27 02:48:36;;;;;;;4.68;2.00;;;;;;;20.09;65.79;97678.28;5010847;28;20945;-69
2023/06/27 02:51:02;;;;;;;4.72;1.75;;;;;;;20.07;66.24;97680.47;5009759;28;20420;-69
2023/06/27 02:53:28;;;;;;;2.55;1.70;;;;;;;20.05;65.54;97684.59;5010981;28;20396;-69
2023/06/27 02:55:57;;;;;;;4.13;1.70;;;;;;;20.06;64.99;97688.88;5011054;28;20416;-69
2023/06/27 02:58:23;;;;;;;3.03;1.67;;;;;;;20.00;66.07;97682.78;5010762;28;20404;-69
2023/06/27 03:00:50;;;;;;;2.88;1.58;;;;;;;19.97;66.45;97688.78;5010979;28;20970;-67
2023/06/27 03:03:16;;;;;;;5.13;1.80;;;;;;;19.92;66.40;97682.75;5010377;28;20412;-68
2023/06/27 03:05:43;;;;;;;5.80;1.80;;;;;;;19.90;67.18;97684.94;5010741;28;20397;-68
2023/06/27 03:08:10;;;;;;;3.08;1.70;;;;;;;19.88;67.54;97682.56;5010750;28;20409;-69
2023/06/27 03:10:36;;;;;;;2.55;1.52;;;;;;;19.86;67.69;97684.75;5010607;28;20471;-69
2023/06/27 03:13:02;;;;;;;4.65;1.92;;;;;;;19.86;67.01;97692.00;5010358;28;20755;-69
2023/06/27 03:15:28;;;;;;;1.90;1.42;;;;;;;19.81;67.63;97689.44;5009168;28;20416;-67
2023/06/27 03:17:54;;;;;;;3.22;1.70;;;;;;;19.80;67.49;97687.84;5010569;28;20476;-67
2023/06/27 03:20:21;;;;;;;1.67;1.40;;;;;;;19.77;67.85;97691.16;5010565;28;20817;-67
2023/06/27 03:22:49;;;;;;;4.30;1.98;;;;;;;19.78;66.56;97682.78;5010347;28;20413;-67
2023/06/27 03:25:15;;;;;;;4.07;1.90;;;;;;;19.73;65.33;97682.09;5010534;28;20417;-67
2023/06/27 03:27:41;;;;;;;2.45;1.70;;;;;;;19.67;66.81;97686.78;5010491;28;20408;-67
2023/06/27 03:30:08;;;;;;;2.67;1.60;;;;;;;19.64;67.87;97684.69;5010384;28;20492;-67
2023/06/27 03:32:35;;;;;;;2.30;1.38;;;;;;;19.63;68.41;97686.59;5010018;28;20471;-67
2023/06/27 03:35:01;;;;;;;6.07;1.90;;;;;;;19.65;65.29;97679.03;5010255;28;20401;-67
2023/06/27 03:37:27;;;;;;;3.72;1.88;;;;;;;19.63;64.46;97681.22;5010447;28;20790;-68
2023/06/27 03:39:56;;;;;;;3.33;1.80;;;;;;;19.57;65.86;97682.44;5010400;28;20447;-68
2023/06/27 03:42:23;;;;;;;3.03;1.83;;;;;;;19.55;66.33;97684.63;5010164;28;20466;-68
2023/06/27 03:44:49;;;;;;;2.53;1.48;;;;;;;19.55;67.22;97694.56;5010401;28;20416;-67
2023/06/27 03:47:15;;;;;;;2.83;1.58;;;;;;;19.54;67.87;97690.31;5010352;28;20415;-68
2023/06/27 03:49:41;;;;;;;4.80;1.98;;;;;;;19.52;67.50;97685.22;5013503;28;20424;-68
2023/06/27 03:52:08;;;;;;;5.40;1.55;;;;;;;19.52;66.24;97701.34;5013747;28;20404;-68
2023/06/27 03:54:34;;;;;;;3.78;1.80;;;;;;;19.52;66.69;97695.19;5014369;28;20397;-68
2023/06/27 03:57:02;;;;;;;3.15;1.70;;;;;;;19.48;67.35;97692.28;5014114;28;20439;-68
2023/06/27 03:59:28;;;;;;;2.55;1.38;;;;;;;19.44;68.38;97695.84;5013736;28;20416;-68
2023/06/27 04:01:54;;;;;;;2.80;1.63;;;;;;;19.46;66.46;97691.78;5013110;28;20413;-68
2023/06/27 04:04:20;;;;;;;4.60;1.87;;;;;;;19.43;67.96;97687.00;5013758;28;20452;-68
2023/06/27 04:06:46;;;;;;;2.40;1.52;;;;;;;19.44;67.17;97685.13;5013800;28;20440;-68
2023/06/27 04:09:13;;;;;;;7.43;1.77;;;;;;;19.41;66.76;97694.56;5014076;28;20413;-68
2023/06/27 04:11:39;;;;;;;4.10;1.85;;;;;;;19.39;67.72;97701.34;5013673;28;20407;-68
2023/06/27 04:14:06;;;;;;;2.22;1.50;;;;;;;19.37;68.55;97706.19;5013946;28;20405;-68
2023/06/27 04:16:32;;;;;;;5.95;2.05;;;;;;;19.35;68.85;97703.81;5013668;28;20404;-68
2023/06/27 04:18:59;;;;;;;2.73;1.40;;;;;;;19.40;67.88;97700.22;5013995;28;20894;-68
2023/06/27 04:21:25;;;;;;;3.38;1.75;;;;;;;19.35;66.10;97693.06;5013442;28;20405;-68
2023/06/27 04:23:53;;;;;;;2.90;1.70;;;;;;;19.36;66.61;97701.94;5013640;28;20413;-68
2023/06/27 04:26:19;;;;;;;5.50;1.70;;;;;;;19.37;66.04;97709.69;5012940;28;20458;-68
2023/06/27 04:28:48;;;;;;;4.55;1.80;;;;;;;19.36;66.35;97709.97;5013154;28;20504;-68
2023/06/27 04:31:16;;;;;;;3.92;1.85;;;;;;;19.35;68.08;97714.53;4993510;28;20406;-68
2023/06/27 04:33:43;;;;;;;4.35;1.80;;;;;;;19.36;67.14;97691.97;4994115;28;20406;-68
2023/06/27 04:36:10;;;;;;;2.83;1.30;;;;;;;19.33;68.66;97701.41;4994178;28;20414;-68
2023/06/27 04:38:40;;;;;;;6.10;1.90;;;;;;;19.35;69.04;97706.50;4994118;28;20864;-68
2023/06/27 04:41:06;;;;;;;3.40;1.65;;;;;;;19.38;68.27;97708.59;4994542;28;20981;-69
2023/06/27 04:43:32;;;;;;;3.67;1.52;;;;;;;19.36;69.36;97702.72;5004305;28;20419;-68
2023/06/27 04:45:59;;;;;;;3.00;1.70;;;;;;;19.36;69.71;97713.47;4999302;28;20420;-69
2023/06/27 04:48:26;;;;;;;3.75;1.52;;;;;;;19.37;70.37;97711.56;5002996;28;20763;-69
2023/06/27 04:50:53;;;;;;;3.42;1.58;;;;;;;19.36;70.74;97713.47;5009858;28;20407;-69
2023/06/27 04:53:20;;;;;;;1.77;1.40;;;;;;;19.36;71.61;97721.50;5007490;28;20772;-69
2023/06/27 04:55:47;;;;;;;2.03;1.60;;;;;;;19.37;71.81;97722.31;5006117;28;20404;-69
2023/06/27 04:58:13;;;;;;;2.47;1.48;;;;;;;19.39;71.90;97723.59;5012690;28;20401;-69
2023/06/27 05:00:39;;;;;;;4.07;1.70;;;;;;;19.41;69.07;97732.13;5010374;28;20782;-69
2023/06/27 05:03:06;;;;;;;1.90;1.45;;;;;;;19.44;70.13;97733.44;5009352;28;20405;-69
2023/06/27 05:05:34;;;;;;;3.70;1.58;;;;;;;19.48;70.46;97729.06;5011663;28;20416;-69
2023/06/27 05:08:01;;;;;;;3.63;1.63;;;;;;;19.51;69.10;97740.03;5013099;28;20400;-69
2023/06/27 05:10:27;;;;;;;2.90;1.48;;;;;;;19.53;69.83;97735.16;5012884;28;20847;-69
2023/06/27 05:12:54;;;;;;;2.47;1.52;;;;;;;19.55;70.41;97737.53;5012440;28;20411;-69
2023/06/27 05:15:20;;;;;;;4.65;1.80;;;;;;;19.56;69.66;97729.19;5011113;28;20408;-69
2023/06/27 05:17:52;;;;;;;4.10;1.75;;;;;;;19.56;70.94;97728.38;5012647;28;20746;-70
2023/06/27 05:20:19;;;;;;;3.75;1.83;;;;;;;19.57;70.81;97736.13;5012730;28;20400;-70
2023/06/27 05:22:47;;;;;;;4.53;1.60;;;;;;;19.59;71.57;97727.78;5012100;28;20414;-70
2023/06/27 05:25:13;;;;;;;3.28;1.60;;;;;;;19.68;70.19;97726.00;5012613;28;20451;-69
2023/06/27 05:27:39;;;;;;;5.07;1.88;;;;;;;19.66;67.31;97736.22;5009177;28;20419;-69
2023/06/27 05:30:07;;;;;;;2.58;1.35;;;;;;;19.65;68.60;97724.69;5009268;28;20942;-69
2023/06/27 05:32:33;;;;;;;3.60;1.93;;;;;;;19.66;69.07;97720.13;5010834;28;20413;-69
2023/06/27 05:34:59;;;;;;;3.40;2.05;;;;;;;19.65;67.01;97722.00;5003952;28;20422;-69
2023/06/27 05:37:25;;;;;;;3.00;1.52;;;;;;;19.65;66.88;97729.25;5007737;28;20412;-69
2023/06/27 05:39:53;;;;;;;4.32;1.83;;;;;;;19.62;67.57;97730.66;5011262;28;20416;-69
2023/06/27 05:42:19;;;;;;;4.82;1.60;;;;;;;19.60;68.74;97737.44;5009853;28;20775;-69
2023/06/27 05:44:45;;;;;;;3.55;1.45;;;;;;;19.61;69.65;97742.50;5011621;28;20417;-69
2023/06/27 05:47:12;;;;;;;4.97;2.05;;;;;;;19.64;68.68;97736.53;4993697;28;20909;-69
2023/06/27 05:49:38;;;;;;;4.05;1.70;;;;;;;19.65;69.01;97734.63;4998422;28;20409;-69
2023/06/27 05:52:05;;;;;;;3.40;1.63;;;;;;;19.66;69.99;97739.72;5009708;28;20416;-69
2023/06/27 05:54:31;;;;;;;3.67;1.73;;;;;;;19.69;69.00;97738.31;5012078;28;20838;-69
2023/06/27 05:56:58;;;;;;;4.53;1.73;;;;;;;19.69;69.68;97741.81;5004454;28;20423;-69
2023/06/27 05:59:25;;;;;;;2.90;1.60;;;;;;;19.73;69.59;97757.31;4991269;28;20425;-69
2023/06/27 06:01:51;;;;;;;4.82;1.85;;;;;;;19.76;69.60;97751.34;4993070;28;20416;-69
2023/06/27 06:04:17;;;;;;;2.90;1.73;;;;;;;19.78;69.55;97751.81;4999386;28;20439;-68
2023/06/27 06:06:43;;;;;;;3.53;1.90;;;;;;;19.80;69.73;97739.69;5010996;28;20420;-69
2023/06/27 06:09:09;;;;;;;5.13;1.83;;;;;;;19.85;66.60;97742.25;4992246;28;20403;-68
2023/06/27 06:11:36;;;;;;;3.63;1.63;;;;;;;19.88;67.70;97733.59;4999523;28;20448;-68
2023/06/27 06:14:04;;;;;;;3.88;1.60;;;;;;;19.91;68.57;97730.31;5011602;28;20497;-68
2023/06/27 06:16:31;;;;;;;4.75;1.60;;;;;;;19.94;69.25;97737.75;5011004;28;20412;-68
2023/06/27 06:18:57;;;;;;;2.40;1.70;;;;;;;19.96;69.37;97745.53;5011186;28;20401;-68
2023/06/27 06:21:24;;;;;;;5.68;1.98;;;;;;;19.96;69.96;97735.56;4993511;28;20429;-68
2023/06/27 06:23:50;;;;;;;2.90;1.52;;;;;;;19.98;70.09;97736.06;4992020;28;20418;-68
2023/06/27 06:26:16;;;;;;;3.22;1.73;;;;;;;20.01;70.29;97734.66;5011150;28;20428;-68
2023/06/27 06:28:42;;;;;;;2.92;1.60;;;;;;;20.04;71.05;97728.69;5010422;28;20422;-68
2023/06/27 06:31:11;;;;;;;3.92;1.60;;;;;;;20.06;70.92;97735.34;5007534;28;20497;-68
2023/06/27 06:33:37;;;;;;;3.50;1.50;;;;;;;20.08;71.06;97735.81;5011146;28;20436;-69
2023/06/27 06:36:04;;;;;;;5.55;1.50;;;;;;;20.12;71.05;97740.59;5008343;28;20450;-69
2023/06/27 06:38:30;;;;;;;4.47;1.57;;;;;;;20.14;71.79;97741.09;5006940;28;20461;-67
2023/06/27 06:40:56;;;;;;;2.17;1.52;;;;;;;20.20;71.96;97738.00;5002218;28;20422;-68
2023/06/27 06:43:24;;;;;;;3.28;1.50;;;;;;;20.28;71.63;97747.22;4995269;28;20423;-68
2023/06/27 06:45:50;;;;;;;2.05;1.42;;;;;;;20.33;71.82;97749.78;5007602;28;20412;-68
2023/06/27 06:48:19;;;;;;;2.58;1.30;;;;;;;20.39;72.10;97749.38;5005184;28;20421;-68
2023/06/27 06:50:45;;;;;;;8.35;2.40;;;;;;;20.42;65.30;97742.59;5006175;28;20424;-68
2023/06/27 06:53:11;;;;;;;2.72;1.80;;;;;;;20.42;68.50;97738.03;5009109;28;20408;-68
2023/06/27 06:55:38;;;;;;;2.67;1.38;;;;;;;20.45;69.53;97737.41;5006772;28;20408;-69
2023/06/27 06:58:04;;;;;;;4.05;1.60;;;;;;;20.48;69.42;97744.88;5001055;28;20611;-69
2023/06/27 07:00:30;;;;;;;2.60;1.73;;;;;;;20.51;69.54;97748.06;5002892;28;20491;-68
2023/06/27 07:02:56;;;;;;;3.00;1.55;;;;;;;20.50;67.88;97749.16;5001557;28;20669;-68
2023/06/27 07:05:24;;;;;;;2.42;1.40;;;;;;;20.47;68.65;97751.34;5003750;28;20772;-68
2023/06/27 07:07:51;;;;;;;2.10;1.53;;;;;;;20.47;69.62;97747.84;5003888;28;20424;-69
2023/06/27 07:10:17;;;;;;;2.38;1.40;;;;;;;20.48;69.27;97758.31;5001006;28;20502;-68
2023/06/27 07:12:43;;;;;;;4.57;1.52;;;;;;;20.48;67.57;97749.44;5000863;28;20412;-68
2023/06/27 07:15:10;;;;;;;3.28;1.45;;;;;;;20.48;67.92;97758.31;5002723;28;20425;-68
2023/06/27 07:17:36;;;;;;;7.73;2.10;;;;;;;20.52;63.25;97753.13;5004205;28;20440;-68
2023/06/27 07:20:04;;;;;;;5.55;1.90;;;;;;;20.58;64.03;97753.78;5010470;28;20400;-68
2023/06/27 07:22:31;;;;;;;4.97;1.83;;;;;;;20.65;64.01;97740.69;5001919;28;20416;-68
2023/06/27 07:24:58;;;;;;;5.93;2.30;;;;;;;20.86;56.78;97731.00;4998342;28;20425;-68
2023/06/27 07:27:24;;;;;;;4.78;2.03;;;;;;;20.77;57.43;97730.16;4999448;28;20429;-68
2023/06/27 07:29:50;;;;;;;3.88;1.92;;;;;;;20.75;59.54;97740.47;5011887;28;20415;-68
2023/06/27 07:32:16;;;;;;;3.00;1.52;;;;;;;20.78;61.35;97742.50;5006509;28;21001;-68
2023/06/27 07:34:42;;;;;;;4.35;1.65;;;;;;;20.84;62.83;97743.97;5005474;28;20498;-69
2023/06/27 07:37:09;;;;;;;2.28;1.10;;;;;;;20.91;63.90;97744.31;5011039;28;20455;-68
2023/06/27 07:39:37;;;;;;;5.70;1.40;;;;;;;21.00;64.90;97737.09;5014441;28;20436;-68
2023/06/27 07:42:03;;;;;;;1.80;1.23;;;;;;;21.10;65.24;97744.91;4998808;28;20407;-69
2023/06/27 07:44:30;;;;;;;4.87;1.70;;;;;;;21.15;62.82;97749.34;5014174;28;20774;-69
2023/06/27 07:46:56;;;;;;;2.83;1.38;;;;;;;21.16;63.70;97745.56;5012970;28;20448;-67
2023/06/27 07:49:22;;;;;;;4.97;1.50;;;;;;;21.18;63.81;97740.69;5011187;28;20835;-69
2023/06/27 07:51:51;;;;;;;1.45;1.30;;;;;;;21.21;64.09;97743.53;5006772;28;20910;-69
2023/06/27 07:54:17;;;;;;;3.53;1.48;;;;;;;21.24;62.06;97750.22;5013633;28;20413;-69
2023/06/27 07:56:45;;;;;;;1.88;1.40;;;;;;;21.21;63.01;97748.94;5010905;28;20426;-69
2023/06/27 07:59:13;;;;;;;3.95;1.92;;;;;;;21.21;62.94;97754.31;5012735;28;20439;-69
2023/06/27 08:01:40;;;;;;;5.20;2.00;;;;;;;21.27;62.59;97751.50;5005337;28;20770;-69
2023/06/27 08:04:08;;;;;;;3.15;1.60;;;;;;;21.31;61.82;97753.25;5015196;28;20524;-69
2023/06/27 08:06:34;;;;;;;3.85;1.45;;;;;;;21.33;62.71;97756.44;4996957;28;20821;-69
2023/06/27 08:09:01;;;;;;;2.15;1.35;;;;;;;21.38;63.32;97752.78;4994474;28;20421;-69
2023/06/27 08:11:27;;;;;;;4.13;1.60;;;;;;;21.44;62.78;97751.53;4996981;28;20413;-69
2023/06/27 08:13:55;;;;;;;4.60;1.87;;;;;;;21.46;62.83;97736.66;5021367;28;20411;-69
2023/06/27 08:16:21;;;;;;;3.60;1.73;;;;;;;21.54;63.08;97740.50;5025587;28;20487;-69
2023/06/27 08:18:48;;;;;;;1.95;1.33;;;;;;;21.66;63.70;97743.34;5003900;28;20425;-68
2023/06/27 08:21:16;;;;;;;2.72;1.50;;;;;;;21.77;62.91;97736.59;4994349;28;20410;-69
2023/06/27 08:23:42;;;;;;;5.03;2.40;;;;;;;21.78;58.06;97727.38;4993557;28;20510;-69
2023/06/27 08:26:12;;;;;;;7.63;2.35;;;;;;;21.83;55.44;97715.66;4993811;28;20750;-69
2023/06/27 08:28:38;;;;;;;4.73;2.00;;;;;;;21.75;53.73;97716.44;5012333;28;20524;-70
2023/06/27 08:31:06;;;;;;;4.18;1.90;;;;;;;21.79;56.36;97709.31;5023810;28;20773;-69
2023/06/27 08:33:36;;;;;;;4.45;1.60;;;;;;;21.85;56.68;97708.84;4997183;28;20413;-70
2023/06/27 08:36:02;;;;;;;8.68;1.98;;;;;;;21.92;57.50;97709.16;5006347;28;20830;-69
2023/06/27 08:38:28;;;;;;;6.43;1.60;;;;;;;21.94;57.83;97706.97;5012776;28;20902;-69
2023/06/27 08:40:55;;;;;;;3.75;1.80;;;;;;;21.98;57.33;97707.13;5010510;28;20475;-70
2023/06/27 08:43:22;;;;;;;3.10;1.60;;;;;;;22.00;59.17;97710.31;5012063;28;20965;-70
2023/06/27 08:45:51;;;;;;;6.32;1.67;;;;;;;21.99;59.36;97709.53;5007723;28;20459;-69
2023/06/27 08:48:19;;;;;;;4.63;1.80;;;;;;;22.01;57.66;97701.13;5012624;28;20440;-69
2023/06/27 08:50:45;;;;;;;5.03;2.10;;;;;;;22.04;57.80;97699.66;5002983;28;20442;-69
2023/06/27 08:53:17;;;;;;;2.50;1.40;;;;;;;22.03;58.99;97701.56;5012295;28;20412;-69
2023/06/27 08:55:49;;;;;;;2.35;1.35;;;;;;;22.05;59.68;97693.19;5002206;28;20416;-69
2023/06/27 08:58:16;;;;;;;2.50;1.38;;;;;;;22.08;60.12;97700.63;5008987;28;20447;-69
2023/06/27 09:00:44;;;;;;;4.38;2.00;;;;;;;22.09;58.38;97704.94;4997909;28;20424;-69
2023/06/27 09:03:11;;;;;;;7.03;2.27;;;;;;;22.18;56.06;97697.59;5007714;28;20499;-69
2023/06/27 09:05:38;;;;;;;5.87;2.00;;;;;;;22.41;50.27;97701.72;5007241;28;20495;-69
2023/06/27 09:08:05;;;;;;;3.25;1.70;;;;;;;22.34;51.34;97696.00;5008474;28;20417;-69
2023/06/27 09:10:31;;;;;;;4.68;1.88;;;;;;;22.31;51.05;97697.47;5000743;28;20414;-69
2023/06/27 09:12:59;;;;;;;4.65;2.15;;;;;;;22.22;51.11;97698.56;5004926;28;20503;-68
2023/06/27 09:15:26;;;;;;;7.30;2.30;;;;;;;22.08;50.66;97696.03;5007228;28;20420;-70
2023/06/27 09:17:52;;;;;;;4.82;2.08;;;;;;;22.02;52.49;97686.53;5002969;28;20428;-70
2023/06/27 09:20:19;;;;;;;5.35;1.88;;;;;;;22.14;50.17;97678.59;5011625;28;20417;-69
2023/06/27 09:22:50;;;;;;;4.70;1.60;;;;;;;22.13;51.57;97689.69;4998411;28;20414;-69
2023/06/27 09:25:19;;;;;;;4.03;2.07;;;;;;;22.25;53.43;97679.84;4992603;28;20429;-68
2023/06/27 09:27:46;;;;;;;4.85;1.60;;;;;;;22.43;54.11;97677.91;4995769;28;20411;-69
2023/06/27 09:30:13;;;;;;;3.05;1.52;;;;;;;22.52;54.04;97683.28;5005368;28;20942;-68
2023/06/27 09:32:53;;;;;;;4.32;1.85;;;;;;;22.64;52.30;97681.50;4994931;28;20410;-68
2023/06/27 09:35:20;;;;;;;2.55;1.70;;;;;;;22.68;52.74;97679.75;5002978;28;20838;-69
2023/06/27 09:37:48;;;;;;;2.92;1.67;;;;;;;22.70;53.46;97691.00;5006826;28;21458;-68
2023/06/27 09:40:19;;;;;;;6.00;2.10;;;;;;;22.61;49.66;97684.06;4991923;28;20402;-69
2023/06/27 09:42:52;;;;;;;6.03;1.83;;;;;;;22.52;48.73;97684.09;5001107;28;20487;-69
2023/06/27 09:45:19;;;;;;;7.63;2.45;;;;;;;22.42;49.08;97687.09;5008050;28;20423;-68
2023/06/27 09:47:48;;;;;;;4.07;2.17;;;;;;;22.42;52.16;97683.63;5009742;28;20841;-69
2023/06/27 09:50:15;;;;;;;9.25;2.20;;;;;;;22.52;51.71;97678.69;4996370;28;20414;-69
2023/06/27 09:52:49;;;;;;;5.75;1.85;;;;;;;22.51;52.65;97681.69;5007352;28;20902;-69
2023/06/27 09:55:19;;;;;;;5.57;1.95;;;;;;;22.55;54.01;97686.16;5011231;28;20906;-69
2023/06/27 09:57:45;;;;;;;3.57;1.73;;;;;;;22.59;54.75;97683.59;5011174;28;20772;-69
2023/06/27 10:00:13;;;;;;;3.03;1.42;;;;;;;22.66;55.64;97686.59;5005446;28;20414;-68
2023/06/27 10:02:40;;;;;;;4.07;1.80;;;;;;;22.71;55.07;97678.31;4991809;28;20892;-68
2023/06/27 10:05:06;;;;;;;3.28;1.55;;;;;;;22.80;55.65;97681.81;4992549;28;20753;-68
2023/06/27 10:07:34;;;;;;;3.63;1.50;;;;;;;22.87;56.04;97687.50;4992288;28;20403;-68
2023/06/27 10:10:03;;;;;;;5.03;1.90;;;;;;;22.97;53.78;97681.75;4991951;28;20460;-68
2023/06/27 10:12:30;;;;;;;13.23;2.83;;;;;;;22.89;52.93;97681.78;4996426;28;20839;-68
2023/06/27 10:14:57;;;;;;;4.45;1.75;;;;;;;22.84;53.93;97687.38;5000048;28;20421;-68
2023/06/27 10:17:24;;;;;;;2.55;1.40;;;;;;;22.83;54.64;97683.88;5007300;28;20737;-68
2023/06/27 10:19:50;;;;;;;3.58;1.60;;;;;;;22.88;55.91;97680.97;4991796;28;20509;-68
2023/06/27 10:22:19;;;;;;;2.10;1.27;;;;;;;22.94;56.43;97670.78;5009574;28;20450;-68
2023/06/27 10:24:47;;;;;;;3.80;1.60;;;;;;;23.02;55.63;97672.66;5011406;28;20902;-68
2023/06/27 10:27:19;;;;;;;3.43;1.70;;;;;;;23.08;55.28;97682.19;4994967;28;20417;-68
2023/06/27 10:29:46;;;;;;;4.20;1.77;;;;;;;23.12;54.37;97683.91;4991825;28;20441;-69
2023/06/27 10:32:16;;;;;;;3.17;1.43;;;;;;;23.25;55.89;97684.00;5009817;28;20953;-69
2023/06/27 10:34:44;;;;;;;3.10;1.40;;;;;;;23.31;55.61;97678.06;4994867;28;20435;-69
2023/06/27 10:37:11;;;;;;;1.92;1.20;;;;;;;23.39;55.93;97679.16;4999176;28;20462;-68
2023/06/27 10:39:41;;;;;;;2.95;1.40;;;;;;;23.38;55.00;97674.88;4991581;28;20476;-68
2023/06/27 10:42:28;;;;;;;3.30;1.45;;;;;;;23.37;54.40;97681.41;4997711;28;20939;-69
2023/06/27 10:45:07;;;;;;;3.63;1.52;;;;;;;23.49;54.02;97678.81;5009752;28;20842;-68
2023/06/27 10:47:38;;;;;;;5.00;1.60;;;;;;;23.64;51.75;97685.53;5006835;28;20412;-67
2023/06/27 10:50:10;;;;;;;4.10;1.50;;;;;;;23.69;49.16;97679.94;5001671;28;20409;-69
2023/06/27 10:52:36;;;;;;;4.28;1.83;;;;;;;23.61;50.36;97681.59;4995135;28;20490;-69
2023/06/27 10:55:22;;;;;;;3.35;1.77;;;;;;;23.61;52.12;97689.69;5009682;28;20411;-70
2023/06/27 10:58:02;;;;;;;3.75;1.73;;;;;;;23.65;52.49;97676.31;5008770;28;20413;-69
2023/06/27 11:00:32;;;;;;;2.45;1.33;;;;;;;23.72;53.43;97682.00;5002119;28;20421;-69
2023/06/27 11:03:01;;;;;;;5.65;2.40;;;;;;;23.80;53.36;97681.16;5010574;28;20405;-69
2023/06/27 11:05:39;;;;;;;6.70;2.00;;;;;;;23.92;53.57;97676.59;4998001;28;20410;-70
2023/06/27 11:08:10;;;;;;;7.17;2.00;;;;;;;23.99;52.90;97676.06;5006522;28;20411;-69
2023/06/27 11:10:37;;;;;;;5.97;2.20;;;;;;;24.04;52.63;97688.59;5008043;28;20498;-69
2023/06/27 11:13:15;;;;;;;3.75;1.65;;;;;;;24.16;50.59;97681.31;4989863;28;20418;-69
2023/06/27 11:15:43;;;;;;;2.00;1.42;;;;;;;24.13;50.88;97689.31;4993654;28;20425;-69
2023/06/27 11:18:11;;;;;;;4.55;1.73;;;;;;;24.07;51.16;97694.13;4990584;28;20418;-69
2023/06/27 11:20:38;;;;;;;5.97;1.98;;;;;;;23.99;46.40;97694.19;4990400;28;20494;-69
2023/06/27 11:23:04;;;;;;;2.35;1.60;;;;;;;23.80;48.67;97689.25;4990294;28;20484;-69
2023/06/27 11:25:36;;;;;;;4.30;1.65;;;;;;;23.68;50.09;97694.59;5001482;28;20427;-69
2023/06/27 11:28:03;;;;;;;4.07;1.33;;;;;;;23.59;49.70;97693.84;5010631;28;20412;-68
2023/06/27 11:30:33;;;;;;;5.18;1.80;;;;;;;23.58;51.53;97689.56;4992279;28;20554;-68
2023/06/27 11:32:59;;;;;;;4.40;2.15;;;;;;;23.67;51.28;97690.31;4997774;28;20440;-68
2023/06/27 11:35:26;;;;;;;7.03;2.20;;;;;;;23.56;47.26;97681.78;4994097;28;20501;-69